Time;durP1;ratioP1;P1;durP2;ratioP2;P2;SDS_P1;SDS_P2;PMS_P1;PMS_P2;Temp;Humidity;BMP_temperature;BMP_pressure;BME280_temperature;BME280_humidity;BME280_pressure;Samples;Min_cycle;Max_cycle;Signal;HPM_P1;HPM_P2
2022/01/21 00:00:03;;;;;;;11.47;4.37;;;76.90;2227.20;;;;;;5072782;28;20035;-75
2022/01/21 00:02:29;;;;;;;13.67;3.97;;;76.90;2227.20;;;;;;5073582;28;20632;-71
2022/01/21 00:04:55;;;;;;;11.53;4.23;;;76.90;2227.20;;;;;;5073467;28;20024;-70
2022/01/21 00:07:20;;;;;;;12.20;4.40;;;76.90;2227.20;;;;;;5073733;28;20016;-70
2022/01/21 00:09:47;;;;;;;12.93;5.20;;;76.90;2227.20;;;;;;5073180;28;20473;-79
2022/01/21 00:12:13;;;;;;;15.57;7.40;;;76.90;2227.20;;;;;;5073602;28;20020;-70
2022/01/21 00:14:38;;;;;;;25.37;12.57;;;76.90;2227.20;;;;;;5073314;28;20400;-71
2022/01/21 00:17:04;;;;;;;19.50;7.50;;;76.90;2227.20;;;;;;5072132;28;20027;-70
2022/01/21 00:19:37;;;;;;;12.20;5.70;;;76.90;2227.20;;;;;;5073484;28;20412;-86
2022/01/21 00:30:19;;;;;;;19.87;9.60;;;76.80;2227.20;;;;;;5074373;28;20032;-85
2022/01/21 00:32:48;;;;;;;14.27;6.07;;;76.80;2227.20;;;;;;5074076;28;20047;-84
2022/01/21 00:35:15;;;;;;;21.43;7.90;;;52.10;2227.20;;;;;;5073943;28;20043;-86
2022/01/21 00:37:41;;;;;;;19.03;7.50;;;52.10;2227.20;;;;;;5074268;28;20373;-86
2022/01/21 00:40:11;;;;;;;17.23;8.27;;;76.80;2227.20;;;;;;5074024;28;20032;-84
2022/01/21 00:45:03;;;;;;;19.43;6.43;;;76.80;2227.20;;;;;;5074161;28;20104;-83
2022/01/21 00:47:29;;;;;;;20.33;9.87;;;76.80;2227.20;;;;;;5073723;28;20461;-80
2022/01/21 00:49:56;;;;;;;16.53;5.53;;;76.80;2227.20;;;;;;5073773;28;20078;-84
2022/01/21 00:52:22;;;;;;;15.33;4.50;;;52.10;2227.20;;;;;;5072416;28;20021;-85
2022/01/21 00:54:48;;;;;;;11.93;5.60;;;76.80;2227.20;;;;;;5073774;28;20037;-84
2022/01/21 00:57:14;;;;;;;14.03;6.67;;;76.80;2227.20;;;;;;5073522;28;20481;-71
2022/01/21 00:59:40;;;;;;;16.17;8.50;;;76.80;2227.20;;;;;;5073446;28;20070;-85
2022/01/21 01:02:06;;;;;;;11.87;4.97;;;76.80;2227.20;;;;;;5073944;28;20055;-85
2022/01/21 01:04:32;;;;;;;13.33;5.77;;;52.10;2227.20;;;;;;5073736;28;20489;-85
2022/01/21 01:06:58;;;;;;;12.00;5.60;;;52.10;2227.20;;;;;;5073224;28;20031;-81
2022/01/21 01:09:24;;;;;;;10.57;5.97;;;52.10;2227.20;;;;;;5073400;28;20028;-85
2022/01/21 01:12:23;;;;;;;12.73;5.57;;;52.10;2227.20;;;;;;5073500;28;20017;-85
2022/01/21 01:20:10;;;;;;;13.45;5.60;;;52.00;2227.20;;;;;;5072668;28;20423;-70
2022/01/21 01:27:50;;;;;;;11.33;4.90;;;52.00;2227.20;;;;;;5073716;28;20074;-88
2022/01/21 01:30:19;;;;;;;15.00;5.00;;;52.00;2227.20;;;;;;5073663;28;20457;-70
2022/01/21 01:32:47;;;;;;;11.07;4.37;;;52.10;2227.20;;;;;;5073722;28;20024;-86
2022/01/21 01:35:15;;;;;;;7.90;3.13;;;52.00;2227.20;;;;;;5073402;28;20076;-87
2022/01/21 01:40:21;;;;;;;8.30;3.58;;;51.90;2227.20;;;;;;5073956;28;20465;-87
2022/01/21 01:50:52;;;;;;;9.27;2.97;;;51.90;2227.20;;;;;;5073089;28;20024;-81
2022/01/21 01:53:20;;;;;;;6.23;2.80;;;51.90;2227.20;;;;;;5073327;28;20044;-71
2022/01/21 01:55:46;;;;;;;7.17;3.27;;;51.90;2227.20;;;;;;5073166;28;20037;-82
2022/01/21 01:58:14;;;;;;;11.43;3.63;;;51.90;2227.20;;;;;;5072879;28;20025;-81
2022/01/21 02:00:41;;;;;;;8.87;4.03;;;51.90;2227.20;;;;;;5072883;28;20020;-82
2022/01/21 02:03:09;;;;;;;14.63;5.07;;;51.90;2227.20;;;;;;5071735;28;20025;-82
2022/01/21 02:05:35;;;;;;;14.67;4.93;;;51.90;2227.20;;;;;;5072847;28;20024;-83
2022/01/21 02:08:01;;;;;;;14.40;5.30;;;51.90;2227.20;;;;;;5073133;28;20392;-82
2022/01/21 02:10:28;;;;;;;14.00;5.10;;;52.00;2227.20;;;;;;5073106;28;20020;-80
2022/01/21 02:13:05;;;;;;;15.33;6.13;;;52.00;2227.20;;;;;;5072857;28;20496;-82
2022/01/21 02:15:35;;;;;;;9.50;4.63;;;51.90;2227.20;;;;;;5073322;28;20550;-81
2022/01/21 02:23:30;;;;;;;9.07;3.77;;;51.90;2227.20;;;;;;5076491;28;20036;-71
2022/01/21 02:25:56;;;;;;;7.40;3.17;;;51.80;2227.20;;;;;;5076251;28;20404;-82
2022/01/21 02:28:22;;;;;;;8.53;2.93;;;51.80;2227.20;;;;;;5076245;28;20024;-81
2022/01/21 02:30:56;;;;;;;12.70;3.90;;;51.80;2227.20;;;;;;5076551;28;20029;-69
2022/01/21 02:33:26;;;;;;;12.27;3.50;;;51.80;2227.20;;;;;;5076241;28;20031;-82
2022/01/21 02:35:52;;;;;;;10.87;3.57;;;51.80;2227.20;;;;;;5076117;28;20040;-81
2022/01/21 02:38:18;;;;;;;10.93;4.20;;;51.70;2227.20;;;;;;5074870;28;20055;-69
2022/01/21 02:40:45;;;;;;;9.77;3.63;;;51.70;2227.20;;;;;;5076459;28;20062;-82
2022/01/21 02:43:12;;;;;;;12.30;4.83;;;51.70;2227.20;;;;;;5076241;28;20063;-79
2022/01/21 02:45:44;;;;;;;8.37;3.53;;;51.60;2227.20;;;;;;5075986;28;20029;-70
2022/01/21 02:48:10;;;;;;;12.00;3.70;;;51.60;2227.20;;;;;;5075997;28;20020;-81
2022/01/21 02:50:36;;;;;;;10.07;3.87;;;51.60;2227.20;;;;;;5076156;28;20032;-84
2022/01/21 02:55:57;;;;;;;9.27;5.00;;;51.50;2227.20;;;;;;5056980;28;20559;-76
2022/01/21 02:58:25;;;;;;;16.10;3.77;;;51.50;2227.20;;;;;;5075976;28;20052;-68
2022/01/21 03:00:51;;;;;;;8.20;3.33;;;51.50;2227.20;;;;;;5075707;28;20384;-81
2022/01/21 03:03:17;;;;;;;9.53;3.30;;;51.50;2227.20;;;;;;5076261;28;20032;-73
2022/01/21 03:05:43;;;;;;;7.83;2.83;;;51.50;2227.20;;;;;;5075617;28;20598;-68
2022/01/21 03:08:09;;;;;;;7.43;3.33;;;51.50;2227.20;;;;;;5076708;28;20024;-68
2022/01/21 03:10:35;;;;;;;9.63;4.03;;;51.50;2227.20;;;;;;5075537;28;20477;-81
2022/01/21 03:13:01;;;;;;;9.90;3.73;;;51.50;2227.20;;;;;;5075550;28;20066;-82
2022/01/21 03:15:27;;;;;;;9.77;3.47;;;51.40;2227.20;;;;;;5075406;28;20396;-81
2022/01/21 03:17:52;;;;;;;9.20;3.73;;;51.40;2227.20;;;;;;5075504;28;20036;-82
2022/01/21 03:20:18;;;;;;;11.93;3.87;;;51.40;2227.20;;;;;;5075403;28;20027;-68
2022/01/21 03:22:44;;;;;;;7.00;3.17;;;51.40;2227.20;;;;;;5075901;28;20017;-68
2022/01/21 03:25:11;;;;;;;7.97;3.37;;;51.40;2227.20;;;;;;5075447;28;20443;-68
2022/01/21 03:27:36;;;;;;;6.50;2.47;;;51.40;2227.20;;;;;;5075106;28;20099;-81
2022/01/21 03:30:05;;;;;;;8.37;2.77;;;51.40;2227.20;;;;;;5075032;28;20120;-76
2022/01/21 03:32:31;;;;;;;8.83;3.63;;;51.40;2227.20;;;;;;5075097;28;20473;-80
2022/01/21 03:34:57;;;;;;;6.53;2.70;;;51.40;2227.20;;;;;;5075189;28;20044;-82
2022/01/21 03:37:23;;;;;;;7.53;3.17;;;51.40;2227.20;;;;;;5075008;28;20115;-83
2022/01/21 03:39:49;;;;;;;9.33;2.57;;;51.40;2227.20;;;;;;5074932;28;20082;-69
2022/01/21 03:42:15;;;;;;;9.27;3.70;;;51.40;2227.20;;;;;;5074824;28;20503;-71
2022/01/21 03:44:41;;;;;;;9.50;3.43;;;51.40;2227.20;;;;;;5075201;28;20031;-82
2022/01/21 03:47:07;;;;;;;11.10;3.90;;;51.40;2227.20;;;;;;5074734;28;20111;-82
2022/01/21 03:49:41;;;;;;;8.87;4.37;;;51.40;2227.20;;;;;;5074775;28;20020;-78
2022/01/21 03:52:08;;;;;;;14.03;4.33;;;51.40;2227.20;;;;;;5075022;28;20146;-75
2022/01/21 03:54:35;;;;;;;15.23;5.63;;;51.40;2227.20;;;;;;5074732;28;20385;-81
2022/01/21 03:57:03;;;;;;;15.93;6.77;;;51.40;2227.20;;;;;;5074479;28;20060;-68
2022/01/21 03:59:28;;;;;;;30.77;11.07;;;51.40;2227.20;;;;;;5074858;28;20032;-68
2022/01/21 04:01:56;;;;;;;29.27;10.47;;;51.40;2227.20;;;;;;5074767;28;20024;-79
2022/01/21 04:04:22;;;;;;;32.40;10.87;;;51.40;2227.20;;;;;;5074464;28;20027;-69
2022/01/21 04:06:48;;;;;;;36.87;11.50;;;51.40;2227.20;;;;;;5074427;28;20028;-72
2022/01/21 04:09:15;;;;;;;27.47;8.80;;;51.40;2227.20;;;;;;5074376;28;20032;-68
2022/01/21 04:11:41;;;;;;;40.23;14.23;;;51.30;2227.20;;;;;;5074336;28;20040;-68
2022/01/21 04:14:07;;;;;;;39.20;12.87;;;51.30;2227.20;;;;;;5073933;28;20059;-70
2022/01/21 04:16:33;;;;;;;42.37;14.40;;;51.30;2227.20;;;;;;5074290;28;20029;-82
2022/01/21 04:18:59;;;;;;;49.27;17.87;;;51.20;2227.20;;;;;;5074266;28;20040;-68
2022/01/21 04:21:25;;;;;;;34.67;13.40;;;51.20;2227.20;;;;;;5074934;28;20025;-82
2022/01/21 04:23:51;;;;;;;21.53;8.40;;;51.20;2227.20;;;;;;5074189;28;20381;-82
2022/01/21 04:26:17;;;;;;;13.63;5.67;;;51.20;2227.20;;;;;;5074280;28;20036;-72
2022/01/21 04:28:43;;;;;;;13.80;4.97;;;26.50;2201.60;;;;;;5074327;28;20127;-68
2022/01/21 04:31:09;;;;;;;13.73;5.03;;;26.50;2201.60;;;;;;5074577;28;20402;-69
2022/01/21 04:33:35;;;;;;;13.20;5.17;;;26.50;2201.60;;;;;;5074223;28;20025;-82
2022/01/21 04:36:01;;;;;;;20.30;8.80;;;26.50;2201.60;;;;;;5073884;28;20385;-82
2022/01/21 04:38:27;;;;;;;17.60;6.63;;;26.50;2201.60;;;;;;5073941;28;20032;-74
2022/01/21 04:41:04;;;;;;;29.03;11.13;;;26.40;2201.60;;;;;;5074472;28;20025;-68
2022/01/21 04:48:58;;;;;;;;;;;26.40;2201.60;;;;;;5074217;28;20067;-70
2022/01/21 04:51:29;;;;;;;20.33;9.40;;;26.40;2201.60;;;;;;5073712;28;19904;-68
2022/01/21 04:53:56;;;;;;;12.40;5.23;;;26.40;2201.60;;;;;;5074004;28;20033;-83
2022/01/21 04:56:22;;;;;;;22.17;9.53;;;26.40;2201.60;;;;;;5073646;28;20032;-68
2022/01/21 04:58:48;;;;;;;6.67;3.73;;;26.50;2201.60;;;;;;5073791;28;20058;-68
2022/01/21 05:01:14;;;;;;;8.43;3.57;;;26.40;2201.60;;;;;;5073519;28;20085;-68
2022/01/21 05:03:41;;;;;;;6.80;3.23;;;26.40;2201.60;;;;;;5073543;28;20016;-68
2022/01/21 05:06:08;;;;;;;7.27;3.07;;;26.40;2201.60;;;;;;5073561;28;20028;-73
2022/01/21 05:08:54;;;;;;;3.83;2.10;;;26.50;2201.60;;;;;;5073795;28;20029;-81
2022/01/21 05:11:21;;;;;;;7.00;2.60;;;26.50;2201.60;;;;;;5073528;28;20028;-81
2022/01/21 05:14:24;;;;;;;6.27;2.47;;;51.20;2227.20;;;;;;5073159;28;20044;-68
2022/01/21 05:16:45;;;;;;;7.47;3.20;;;51.20;2227.20;;;;;;5070379;28;20537;-82
2022/01/21 05:19:15;;;;;;;4.50;2.07;;;51.20;2227.20;;;;;;5073678;28;20366;-68
2022/01/21 05:21:49;;;;;;;7.00;2.50;;;51.20;2227.20;;;;;;5073466;28;20029;-69
2022/01/21 05:24:19;;;;;;;6.22;2.42;;;51.20;2227.20;;;;;;5073420;28;20037;-81
2022/01/21 05:26:53;;;;;;;8.67;3.63;;;51.20;2227.20;;;;;;5073759;28;20048;-82
2022/01/21 05:29:22;;;;;;;9.90;3.50;;;51.20;2227.20;;;;;;5073277;28;20036;-69
2022/01/21 05:31:48;;;;;;;6.10;2.67;;;51.20;2227.20;;;;;;5073193;28;20111;-72
2022/01/21 05:34:14;;;;;;;9.33;3.97;;;51.20;2227.20;;;;;;5073420;28;20040;-81
2022/01/21 05:36:41;;;;;;;8.13;3.40;;;51.20;2227.20;;;;;;5073241;28;20025;-72
2022/01/21 05:39:07;;;;;;;15.13;6.37;;;51.20;2227.20;;;;;;5073193;28;20469;-81
2022/01/21 05:41:34;;;;;;;15.97;6.50;;;51.20;2227.20;;;;;;5073387;28;20366;-81
2022/01/21 05:44:04;;;;;;;13.40;6.20;;;51.20;2227.20;;;;;;5073083;28;20035;-69
2022/01/21 05:49:11;;;;;;;17.70;8.70;;;26.50;2201.60;;;;;;5073672;28;20453;-69
2022/01/21 05:51:38;;;;;;;14.90;7.63;;;26.50;2201.60;;;;;;5073303;28;20195;-81
2022/01/21 05:54:04;;;;;;;20.33;8.50;;;51.20;2227.20;;;;;;5072960;28;20035;-81
2022/01/21 05:56:31;;;;;;;18.77;8.43;;;26.50;2201.60;;;;;;5073992;28;20031;-77
2022/01/21 05:58:57;;;;;;;16.87;7.83;;;26.50;2201.60;;;;;;5077084;28;20026;-68
2022/01/21 06:01:23;;;;;;;16.73;7.63;;;26.50;2201.60;;;;;;5076737;28;20108;-81
2022/01/21 06:03:49;;;;;;;15.57;8.00;;;26.40;2201.60;;;;;;5076673;28;20070;-69
2022/01/21 06:06:15;;;;;;;14.87;7.77;;;51.40;2227.20;;;;;;5076689;28;20384;-81
2022/01/21 06:08:41;;;;;;;15.73;6.33;;;26.40;2201.60;;;;;;5076677;28;20036;-69
2022/01/21 06:11:07;;;;;;;20.17;6.93;;;26.30;2201.60;;;;;;5076600;28;20017;-80
2022/01/21 06:13:34;;;;;;;13.43;7.33;;;26.30;2201.60;;;;;;5076397;28;20055;-80
2022/01/21 06:16:00;;;;;;;16.53;7.87;;;26.30;2201.60;;;;;;5076479;28;20047;-68
2022/01/21 06:18:26;;;;;;;19.70;8.90;;;26.20;2201.60;;;;;;5076415;28;20025;-81
2022/01/21 06:20:53;;;;;;;32.17;15.47;;;26.20;2201.60;;;;;;5076313;28;20039;-69
2022/01/21 06:23:19;;;;;;;30.37;15.23;;;26.10;2201.60;;;;;;5076655;28;20142;-69
2022/01/21 06:25:45;;;;;;;17.67;8.70;;;26.10;2201.60;;;;;;5076384;28;20472;-80
2022/01/21 06:28:11;;;;;;;14.53;7.47;;;26.10;2201.60;;;;;;5076357;28;20111;-69
2022/01/21 06:30:37;;;;;;;24.47;11.87;;;26.10;2201.60;;;;;;5076341;28;20103;-80
2022/01/21 06:33:03;;;;;;;44.73;14.83;;;26.10;2201.60;;;;;;5076244;28;20029;-68
2022/01/21 06:35:29;;;;;;;64.03;17.27;;;26.10;2201.60;;;;;;5076205;28;20075;-68
2022/01/21 06:37:55;;;;;;;60.37;17.17;;;26.10;2201.60;;;;;;5076204;28;20052;-80
2022/01/21 06:40:21;;;;;;;53.53;19.50;;;26.10;2201.60;;;;;;5076142;28;20374;-68
2022/01/21 06:42:49;;;;;;;21.90;11.47;;;26.10;2201.60;;;;;;5076076;28;20455;-68
2022/01/21 06:45:16;;;;;;;16.47;6.80;;;26.10;2201.60;;;;;;5076009;28;20037;-68
2022/01/21 06:47:42;;;;;;;14.87;6.47;;;26.20;2201.60;;;;;;5076008;28;20028;-80
2022/01/21 06:50:09;;;;;;;14.70;5.50;;;26.20;2201.60;;;;;;5076182;28;20028;-69
2022/01/21 06:52:35;;;;;;;18.33;7.77;;;26.30;2201.60;;;;;;5075854;28;20126;-80
2022/01/21 06:55:01;;;;;;;21.27;7.53;;;26.40;2201.60;;;;;;5075967;28;20552;-75
2022/01/21 06:57:28;;;;;;;14.83;5.43;;;26.40;2201.60;;;;;;5075682;28;20028;-80
2022/01/21 06:59:55;;;;;;;14.07;5.97;;;26.40;2201.60;;;;;;5075772;28;20028;-80
2022/01/21 07:02:21;;;;;;;13.53;6.80;;;26.50;2201.60;;;;;;5075751;28;20496;-68
2022/01/21 07:04:48;;;;;;;15.43;5.77;;;51.20;2227.20;;;;;;5075694;28;20036;-68
2022/01/21 07:07:16;;;;;;;11.17;4.93;;;51.20;2227.20;;;;;;5075599;28;20032;-75
2022/01/21 07:09:42;;;;;;;11.03;5.10;;;51.20;2227.20;;;;;;5075564;28;20037;-68
2022/01/21 07:12:09;;;;;;;15.77;5.97;;;51.20;2227.20;;;;;;5075521;28;20542;-81
2022/01/21 07:14:35;;;;;;;16.47;6.50;;;51.20;2227.20;;;;;;5075222;28;20056;-81
2022/01/21 07:17:02;;;;;;;13.33;6.00;;;51.20;2227.20;;;;;;5075730;28;20032;-68
2022/01/21 07:19:28;;;;;;;16.63;5.77;;;51.30;2227.20;;;;;;5075456;28;20116;-71
2022/01/21 07:21:54;;;;;;;11.60;5.70;;;51.30;2227.20;;;;;;5075403;28;20103;-80
2022/01/21 07:24:20;;;;;;;8.37;3.87;;;51.40;2227.20;;;;;;5075574;28;20392;-68
2022/01/21 07:26:46;;;;;;;11.80;4.03;;;51.30;2227.20;;;;;;5075262;28;20038;-68
2022/01/21 07:29:12;;;;;;;8.27;4.57;;;51.40;2227.20;;;;;;5075238;28;20094;-79
2022/01/21 07:31:37;;;;;;;10.60;4.00;;;51.40;2227.20;;;;;;5075243;28;20047;-76
2022/01/21 07:34:06;;;;;;;11.67;4.83;;;51.60;2227.20;;;;;;5075117;28;20087;-68
2022/01/21 07:36:34;;;;;;;9.03;3.53;;;51.70;2227.20;;;;;;5075348;28;20036;-68
2022/01/21 07:39:03;;;;;;;21.27;7.63;;;51.70;2227.20;;;;;;5075024;28;20035;-79
2022/01/21 07:41:29;;;;;;;10.20;4.67;;;51.90;2227.20;;;;;;5075231;28;20029;-68
2022/01/21 07:43:55;;;;;;;8.97;4.40;;;51.90;2227.20;;;;;;5074951;28;20104;-80
2022/01/21 07:46:22;;;;;;;9.60;3.73;;;51.90;2227.20;;;;;;5075171;28;20468;-68
2022/01/21 07:48:48;;;;;;;11.60;4.77;;;51.90;2227.20;;;;;;5074860;28;20032;-74
2022/01/21 07:51:14;;;;;;;16.93;8.70;;;51.90;2227.20;;;;;;5074752;28;20029;-81
2022/01/21 07:53:40;;;;;;;10.63;4.60;;;51.80;2227.20;;;;;;5074562;28;20032;-80
2022/01/21 07:56:05;;;;;;;9.70;4.10;;;51.80;2227.20;;;;;;5074742;28;20036;-81
2022/01/21 07:58:32;;;;;;;19.57;6.93;;;51.80;2227.20;;;;;;5074571;28;20037;-70
2022/01/21 08:00:57;;;;;;;12.17;5.13;;;51.80;2227.20;;;;;;5074398;28;20029;-77
2022/01/21 08:03:24;;;;;;;12.40;4.60;;;51.80;2227.20;;;;;;5074789;28;20036;-68
2022/01/21 08:05:51;;;;;;;11.40;4.53;;;51.70;2227.20;;;;;;5074459;28;20051;-68
2022/01/21 08:08:18;;;;;;;13.67;4.90;;;51.70;2227.20;;;;;;5074696;28;20039;-79
2022/01/21 08:10:44;;;;;;;12.93;4.57;;;51.70;2227.20;;;;;;5074656;28;20035;-82
2022/01/21 08:13:10;;;;;;;12.63;5.43;;;51.70;2227.20;;;;;;5074320;28;20423;-68
2022/01/21 08:15:37;;;;;;;12.70;4.50;;;51.70;2227.20;;;;;;5074288;28;20038;-81
2022/01/21 08:18:03;;;;;;;14.43;5.10;;;51.70;2227.20;;;;;;5073263;28;20103;-81
2022/01/21 08:20:29;;;;;;;12.50;6.80;;;51.80;2227.20;;;;;;5073351;28;20020;-69
2022/01/21 08:22:55;;;;;;;13.30;4.67;;;51.80;2227.20;;;;;;5074026;28;20107;-82
2022/01/21 08:25:21;;;;;;;15.17;6.30;;;51.80;2227.20;;;;;;5074240;28;20056;-68
2022/01/21 08:27:47;;;;;;;10.63;5.50;;;51.80;2227.20;;;;;;5074256;28;20115;-70
2022/01/21 08:30:14;;;;;;;12.83;5.97;;;51.70;2227.20;;;;;;5074008;28;20535;-74
2022/01/21 08:32:40;;;;;;;11.80;5.77;;;51.80;2227.20;;;;;;5074209;28;20028;-81
2022/01/21 08:35:07;;;;;;;15.20;6.30;;;51.90;2227.20;;;;;;5073877;28;20487;-82
2022/01/21 08:37:33;;;;;;;12.83;5.57;;;51.90;2227.20;;;;;;5073838;28;20465;-75
2022/01/21 08:40:00;;;;;;;12.60;4.90;;;51.90;2227.20;;;;;;5073950;28;20082;-67
2022/01/21 08:42:26;;;;;;;12.70;5.97;;;52.00;2227.20;;;;;;5073928;28;20074;-76
2022/01/21 08:44:52;;;;;;;9.90;4.57;;;52.10;2227.20;;;;;;5073728;28;20103;-67
2022/01/21 08:47:20;;;;;;;21.33;4.47;;;76.80;2227.20;;;;;;5073525;28;20071;-66
2022/01/21 08:49:48;;;;;;;11.47;4.67;;;77.00;2201.60;;;;;;5073549;28;20033;-68
2022/01/21 08:52:19;;;;;;;14.63;6.20;;;77.40;2150.40;;;;;;5073621;28;20024;-69
2022/01/21 08:54:46;;;;;;;20.40;5.73;;;102.40;2099.20;;;;;;5073518;28;20469;-67
2022/01/21 08:57:14;;;;;;;10.30;4.80;;;102.50;2022.40;;;;;;5073765;28;20030;-67
2022/01/21 08:59:40;;;;;;;14.50;6.40;;;102.60;2022.40;;;;;;5072444;28;20426;-67
2022/01/21 09:02:06;;;;;;;14.87;6.33;;;102.60;2048.00;;;;;;5073525;28;20104;-67
2022/01/21 09:04:32;;;;;;;17.10;6.70;;;102.70;2022.40;;;;;;5073528;28;20484;-66
2022/01/21 09:06:59;;;;;;;50.50;14.50;;;102.60;1996.80;;;;;;5073643;28;20027;-67
2022/01/21 09:09:25;;;;;;;30.00;10.13;;;102.90;1996.80;;;;;;5073309;28;20550;-67
2022/01/21 09:11:53;;;;;;;42.97;14.27;;;103.00;1971.20;;;;;;5073213;28;20039;-75
2022/01/21 09:14:19;;;;;;;18.57;7.57;;;103.00;1945.60;;;;;;5072958;28;20127;-67
2022/01/21 09:16:45;;;;;;;18.07;6.23;;;103.10;1945.60;;;;;;5073099;28;20124;-78
2022/01/21 09:19:11;;;;;;;26.93;11.50;;;102.80;1971.20;;;;;;5072759;28;20044;-67
2022/01/21 09:21:44;;;;;;;24.27;10.20;;;102.60;1996.80;;;;;;5071756;28;20024;-75
2022/01/21 09:24:10;;;;;;;20.37;8.50;;;102.40;2048.00;;;;;;5073218;28;20441;-67
2022/01/21 09:26:36;;;;;;;30.63;12.43;;;102.40;2099.20;;;;;;5072923;28;20039;-77
2022/01/21 09:29:05;;;;;;;12.33;5.80;;;102.80;2022.40;;;;;;5073263;28;20025;-67
2022/01/21 09:31:32;;;;;;;49.03;13.07;;;;;;;;;;5075600;28;20438;-69
2022/01/21 09:33:58;;;;;;;21.90;6.70;;;179.80;1740.80;;;;;;5076329;28;20061;-69
2022/01/21 09:36:24;;;;;;;24.90;9.00;;;205.30;1561.60;;;;;;5077116;28;20032;-66
2022/01/21 09:38:49;;;;;;;12.87;5.23;;;230.80;1484.80;;;;;;5076960;28;20070;-67
2022/01/21 09:41:17;;;;;;;9.00;3.67;;;230.70;1382.40;;;;;;5076908;28;20052;-74
2022/01/21 09:43:48;;;;;;;14.77;5.20;;;256.10;1254.40;;;;;;5076804;28;20484;-77
2022/01/21 09:46:15;;;;;;;25.48;11.32;;;231.00;1280.00;;;;;;5077195;28;20107;-67
2022/01/21 09:48:54;;;;;;;36.50;18.27;;;231.20;1280.00;;;;;;5076698;28;20503;-67
2022/01/21 09:51:20;;;;;;;22.90;9.40;;;281.60;1254.40;;;;;;5076970;28;20112;-67
2022/01/21 09:53:47;;;;;;;19.33;9.18;;;282.30;1177.60;;;;;;5076857;28;20099;-67
2022/01/21 09:56:17;;;;;;;34.15;15.80;;;282.10;1126.40;;;;;;5076805;28;20037;-67
2022/01/21 09:58:45;;;;;;;28.15;11.45;;;256.20;1228.80;;;;;;5076778;28;20066;-67
2022/01/21 10:01:12;;;;;;;30.42;14.70;;;205.60;1331.20;;;;;;5076786;28;20028;-67
2022/01/21 10:03:42;;;;;;;36.33;16.50;;;256.00;1280.00;;;;;;5076724;28;20392;-75
2022/01/21 10:06:11;;;;;;;37.65;17.02;;;282.00;1203.20;;;;;;5076629;28;20453;-67
2022/01/21 10:08:41;;;;;;;34.95;12.57;;;231.10;1280.00;;;;;;5076734;28;20032;-72
2022/01/21 10:11:07;;;;;;;40.22;16.48;;;256.20;1203.20;;;;;;5076557;28;20031;-68
2022/01/21 10:13:35;;;;;;;17.92;7.07;;;230.40;1331.20;;;;;;5076397;28;20055;-69
2022/01/21 10:16:03;;;;;;;22.63;9.15;;;205.20;1331.20;;;;;;5076324;28;20046;-77
2022/01/21 10:18:29;;;;;;;48.38;24.20;;;231.20;1228.80;;;;;;5076592;28;20029;-76
2022/01/21 10:21:10;;;;;;;26.70;11.32;;;281.80;1254.40;;;;;;5076331;28;20112;-69
2022/01/21 10:23:39;;;;;;;34.95;14.43;;;358.80;998.40;;;;;;5076323;28;20051;-67
2022/01/21 10:26:11;;;;;;;31.05;16.05;;;435.60;844.80;;;;;;5076320;28;20027;-68
2022/01/21 10:28:42;;;;;;;54.67;19.33;;;384.90;870.40;;;;;;5075627;28;20032;-77
2022/01/21 10:31:16;;;;;;;54.13;30.95;;;358.50;921.60;;;;;;5075588;28;20021;-69
2022/01/21 10:33:47;;;;;;;34.60;21.60;;;410.20;870.40;;;;;;5075521;28;20067;-76
2022/01/21 10:36:26;;;;;;;46.65;25.33;;;410.20;844.80;;;;;;5075571;28;20033;-67
2022/01/21 10:38:57;;;;;;;30.20;13.68;;;333.10;998.40;;;;;;5073854;28;20111;-76
2022/01/21 10:41:30;;;;;;;30.50;14.32;;;256.00;1100.80;;;;;;5076165;28;20025;-76
2022/01/21 10:44:04;;;;;;;26.02;10.80;;;;;;;;;;5075279;28;20103;-79
2022/01/21 10:46:30;;;;;;;63.28;18.92;;;;;;;;;;5075951;28;20036;-66
2022/01/21 10:49:08;;;;;;;42.63;12.20;;;154.30;1382.40;;;;;;5075953;28;20074;-66
2022/01/21 10:51:36;;;;;;;73.57;19.70;;;;;;;;;;5075880;28;20021;-66
2022/01/21 10:54:26;;;;;;;29.95;8.98;;;204.90;1331.20;;;;;;5075739;28;20017;-67
2022/01/21 10:57:15;;;;;;;22.10;7.57;;;205.20;1203.20;;;;;;5075843;28;20040;-78
2022/01/21 11:00:03;;;;;;;21.13;6.15;;;205.70;1177.60;;;;;;5075769;28;20024;-65
2022/01/21 11:02:36;;;;;;;22.55;6.28;;;231.00;1126.40;;;;;;5075687;28;20024;-65
2022/01/21 11:05:10;;;;;;;38.95;11.35;;;180.00;1228.80;;;;;;5075048;28;20048;-69
2022/01/21 11:07:55;;;;;;;29.80;9.55;;;282.00;1049.60;;;;;;5075352;28;20029;-67
2022/01/21 11:10:34;;;;;;;136.95;80.78;;;230.40;1152.00;;;;;;5074246;28;20372;-68
2022/01/21 11:13:02;;;;;;;70.38;36.53;;;179.80;1280.00;;;;;;5075390;28;20023;-78
2022/01/21 11:16:04;;;;;;;62.85;30.23;;;154.20;1382.40;;;;;;5077042;28;20094;-82
2022/01/21 11:18:31;;;;;;;38.45;18.75;;;128.80;1459.20;;;;;;5081705;28;20043;-64
2022/01/21 11:21:07;;;;;;;29.20;14.57;;;128.50;1510.40;;;;;;5082010;28;20115;-67
2022/01/21 11:23:35;;;;;;;38.13;12.00;;;128.60;1484.80;;;;;;5076468;28;20021;-80
2022/01/21 11:26:09;;;;;;;44.08;17.50;;;128.70;1484.80;;;;;;5091208;28;20028;-79
2022/01/21 11:28:45;;;;;;;27.50;8.63;;;128.70;1484.80;;;;;;5063925;28;20455;-65
2022/01/21 11:31:13;;;;;;;25.58;8.18;;;153.60;1459.20;;;;;;5083017;28;20025;-80
2022/01/21 11:33:39;;;;;;;54.83;18.77;;;128.60;1484.80;;;;;;5084027;28;20020;-65
2022/01/21 11:36:06;;;;;;;27.85;11.13;;;153.60;1484.80;;;;;;5091844;28;20094;-72
2022/01/21 11:38:37;;;;;;;54.03;23.95;;;128.20;1510.40;;;;;;5092866;28;20016;-65
2022/01/21 11:41:08;;;;;;;64.67;27.07;;;128.30;1484.80;;;;;;5088080;28;20473;-74
2022/01/21 11:43:35;;;;;;;26.58;10.30;;;128.40;1510.40;;;;;;5090075;28;20021;-66
2022/01/21 11:46:18;;;;;;;13.65;3.58;;;128.60;1510.40;;;;;;5083092;28;20052;-82
2022/01/21 11:48:51;;;;;;;42.58;16.35;;;128.70;1484.80;;;;;;5089418;28;20118;-80
2022/01/21 11:51:32;;;;;;;39.80;14.32;;;128.70;1484.80;;;;;;5083050;28;20534;-81
2022/01/21 11:53:59;;;;;;;16.00;5.63;;;128.80;1484.80;;;;;;5072428;28;20024;-72
2022/01/21 11:56:38;;;;;;;25.63;9.70;;;128.40;1484.80;;;;;;5076694;28;20373;-65
2022/01/21 11:59:09;;;;;;;17.53;6.57;;;128.20;1510.40;;;;;;5088409;28;20073;-81
2022/01/21 12:01:41;;;;;;;18.53;7.03;;;128.30;1510.40;;;;;;5083187;28;20464;-81
2022/01/21 12:04:07;;;;;;;45.53;13.20;;;128.60;1510.40;;;;;;5087135;28;20012;-81
2022/01/21 12:06:35;;;;;;;21.83;7.47;;;128.50;1484.80;;;;;;5083880;28;20434;-65
2022/01/21 12:09:04;;;;;;;69.53;20.67;;;128.60;1459.20;;;;;;5093885;28;20035;-79
2022/01/21 12:11:31;;;;;;;22.90;6.93;;;154.10;1433.60;;;;;;5093379;28;20032;-81
2022/01/21 12:13:58;;;;;;;97.60;22.02;;;154.30;1356.80;;;;;;5078481;28;20040;-66
2022/01/21 12:16:54;;;;;;;38.38;10.23;;;154.00;1382.40;;;;;;5090836;28;20020;-66
2022/01/21 12:19:32;;;;;;;54.57;13.30;;;179.20;1356.80;;;;;;5085267;28;20039;-79
2022/01/21 12:22:17;;;;;;;26.73;7.13;;;179.80;1280.00;;;;;;5086585;28;20024;-78
2022/01/21 12:25:10;;;;;;;61.67;16.75;;;180.00;1280.00;;;;;;5085791;28;20036;-79
2022/01/21 12:27:38;;;;;;;55.45;16.92;;;230.90;1152.00;;;;;;5087361;28;20036;-76
2022/01/21 12:30:33;;;;;;;53.78;18.42;;;205.30;1203.20;;;;;;5089009;28;20016;-67
2022/01/21 12:33:01;;;;;;;22.73;8.38;;;179.80;1280.00;;;;;;5028263;28;20041;-79
2022/01/21 12:35:28;;;;;;;19.73;7.93;;;180.00;1254.40;;;;;;5008122;28;20056;-73
2022/01/21 12:41:04;;;;;;;38.70;15.55;;;204.90;1254.40;;;;;;5009613;28;20109;-79
2022/01/21 12:43:37;;;;;;;27.30;11.50;;;230.50;1203.20;;;;;;5009152;28;20524;-78
2022/01/21 12:46:05;;;;;;;42.22;16.58;;;230.60;1177.60;;;;;;5010401;28;20030;-79
2022/01/21 12:48:35;;;;;;;44.95;16.45;;;282.00;1100.80;;;;;;5011899;28;20227;-79
2022/01/21 12:51:22;;;;;;;29.23;9.75;;;384.10;921.60;;;;;;5011641;28;20038;-79
2022/01/21 12:56:52;;;;;;;52.00;16.60;;;538.10;665.60;;;;;;5012011;28;20450;-77
2022/01/21 12:59:23;;;;;;;98.35;34.97;;;588.80;588.80;;;;;;5011642;28;20030;-76
2022/01/21 13:01:51;;;;;;;30.23;11.07;;;615.20;563.20;;;;;;5011681;28;20501;-79
2022/01/21 13:04:53;;;;;;;81.93;33.22;;;615.00;537.60;;;;;;5010937;28;20084;-81
2022/01/21 13:07:22;;;;;;;47.72;20.38;;;487.10;665.60;;;;;;5010413;28;20038;-73
2022/01/21 13:09:51;;;;;;;37.80;16.88;;;461.70;691.20;;;;;;5047314;28;20380;-73
2022/01/21 13:12:20;;;;;;;24.90;11.40;;;460.80;665.60;;;;;;5070151;28;20052;-77
2022/01/21 13:14:56;;;;;;;94.80;28.10;;;359.30;793.60;;;;;;5071700;28;20447;-76
2022/01/21 13:17:23;;;;;;;51.20;20.27;;;333.10;921.60;;;;;;5059957;28;20107;-79